sensor_id;sensor_type;location;lat;lon;timestamp;pressure;altitude;pressure_sealevel;temperature;humidity
60817;BME280;51921;51.518;-3.188;2022-09-25T00:02:23;101850.46;;;8.05;82.68
60817;BME280;51921;51.518;-3.188;2022-09-25T00:04:49;101850.90;;;7.04;86.67
60817;BME280;51921;51.518;-3.188;2022-09-25T00:07:14;101846.99;;;7.24;88.94
60817;BME280;51921;51.518;-3.188;2022-09-25T00:09:40;101845.68;;;7.40;85.38
60817;BME280;51921;51.518;-3.188;2022-09-25T00:12:05;101843.63;;;8.81;79.91
60817;BME280;51921;51.518;-3.188;2022-09-25T00:14:30;101848.58;;;8.47;79.41
60817;BME280;51921;51.518;-3.188;2022-09-25T00:16:56;101847.53;;;7.63;82.09
60817;BME280;51921;51.518;-3.188;2022-09-25T00:19:22;101849.48;;;8.42;81.45
60817;BME280;51921;51.518;-3.188;2022-09-25T00:21:47;101848.06;;;9.36;75.97
60817;BME280;51921;51.518;-3.188;2022-09-25T00:24:13;101853.71;;;7.53;81.07
60817;BME280;51921;51.518;-3.188;2022-09-25T00:26:41;101856.55;;;7.80;82.67
60817;BME280;51921;51.518;-3.188;2022-09-25T00:29:05;101852.53;;;8.42;80.38
60817;BME280;51921;51.518;-3.188;2022-09-25T00:31:30;101854.30;;;7.72;82.04
60817;BME280;51921;51.518;-3.188;2022-09-25T00:33:57;101858.99;;;8.24;80.06
60817;BME280;51921;51.518;-3.188;2022-09-25T00:36:20;101857.28;;;7.67;82.21
60817;BME280;51921;51.518;-3.188;2022-09-25T00:38:46;101858.45;;;9.92;74.05
60817;BME280;51921;51.518;-3.188;2022-09-25T00:41:12;101865.83;;;7.74;79.78
60817;BME280;51921;51.518;-3.188;2022-09-25T00:43:38;101865.66;;;9.26;75.92
60817;BME280;51921;51.518;-3.188;2022-09-25T00:46:06;101867.25;;;8.81;75.18
60817;BME280;51921;51.518;-3.188;2022-09-25T00:48:29;101868.71;;;9.74;71.95
60817;BME280;51921;51.518;-3.188;2022-09-25T00:50:56;101867.58;;;11.09;65.93
60817;BME280;51921;51.518;-3.188;2022-09-25T00:53:22;101867.87;;;9.94;64.69
60817;BME280;51921;51.518;-3.188;2022-09-25T00:55:45;101870.03;;;8.84;72.87
60817;BME280;51921;51.518;-3.188;2022-09-25T00:58:10;101871.36;;;9.21;71.46
60817;BME280;51921;51.518;-3.188;2022-09-25T01:00:35;101879.00;;;7.28;78.97
60817;BME280;51921;51.518;-3.188;2022-09-25T01:03:01;101882.08;;;7.79;77.63
60817;BME280;51921;51.518;-3.188;2022-09-25T01:05:29;101881.54;;;7.23;80.79
60817;BME280;51921;51.518;-3.188;2022-09-25T01:07:53;101883.91;;;8.38;77.99
60817;BME280;51921;51.518;-3.188;2022-09-25T01:10:18;101881.35;;;7.46;80.94
60817;BME280;51921;51.518;-3.188;2022-09-25T01:12:45;101877.53;;;10.34;70.91
60817;BME280;51921;51.518;-3.188;2022-09-25T01:15:09;101875.03;;;9.06;73.43
60817;BME280;51921;51.518;-3.188;2022-09-25T01:17:41;101873.12;;;7.46;79.33
60817;BME280;51921;51.518;-3.188;2022-09-25T01:20:06;101874.53;;;7.07;81.24
60817;BME280;51921;51.518;-3.188;2022-09-25T01:22:35;101874.55;;;7.59;80.01
60817;BME280;51921;51.518;-3.188;2022-09-25T01:25:01;101868.48;;;7.04;82.74
60817;BME280;51921;51.518;-3.188;2022-09-25T01:29:46;101865.39;;;7.81;80.24
60817;BME280;51921;51.518;-3.188;2022-09-25T01:32:14;101868.92;;;8.67;76.33
60817;BME280;51921;51.518;-3.188;2022-09-25T01:34:39;101868.97;;;10.15;68.58
60817;BME280;51921;51.518;-3.188;2022-09-25T01:37:04;101872.36;;;7.93;76.39
60817;BME280;51921;51.518;-3.188;2022-09-25T01:39:28;101867.86;;;9.17;73.78
60817;BME280;51921;51.518;-3.188;2022-09-25T01:41:53;101876.12;;;8.30;75.39
60817;BME280;51921;51.518;-3.188;2022-09-25T01:44:18;101877.79;;;8.35;77.63
60817;BME280;51921;51.518;-3.188;2022-09-25T01:46:44;101872.53;;;8.75;74.55
60817;BME280;51921;51.518;-3.188;2022-09-25T01:49:08;101874.47;;;7.97;77.64
60817;BME280;51921;51.518;-3.188;2022-09-25T01:51:36;101872.08;;;8.25;77.51
60817;BME280;51921;51.518;-3.188;2022-09-25T01:54:01;101865.75;;;8.61;75.06
60817;BME280;51921;51.518;-3.188;2022-09-25T01:56:26;101863.63;;;9.63;69.79
60817;BME280;51921;51.518;-3.188;2022-09-25T01:58:52;101863.25;;;11.19;64.59
60817;BME280;51921;51.518;-3.188;2022-09-25T02:01:17;101864.52;;;11.55;61.94
60817;BME280;51921;51.518;-3.188;2022-09-25T02:03:43;101868.77;;;9.84;66.49
60817;BME280;51921;51.518;-3.188;2022-09-25T02:06:06;101882.63;;;7.81;72.00
60817;BME280;51921;51.518;-3.188;2022-09-25T02:08:33;101884.16;;;7.78;75.62
60817;BME280;51921;51.518;-3.188;2022-09-25T02:10:59;101876.26;;;8.89;73.46
60817;BME280;51921;51.518;-3.188;2022-09-25T02:13:23;101876.97;;;8.35;73.32
60817;BME280;51921;51.518;-3.188;2022-09-25T02:15:51;101877.42;;;8.60;73.31
60817;BME280;51921;51.518;-3.188;2022-09-25T02:18:14;101881.31;;;8.02;74.89
60817;BME280;51921;51.518;-3.188;2022-09-25T02:20:38;101878.25;;;8.82;71.42
60817;BME280;51921;51.518;-3.188;2022-09-25T02:23:09;101879.17;;;9.72;69.53
60817;BME280;51921;51.518;-3.188;2022-09-25T02:25:35;101877.31;;;10.52;65.40
60817;BME280;51921;51.518;-3.188;2022-09-25T02:27:54;101875.72;;;10.98;62.76
60817;BME280;51921;51.518;-3.188;2022-09-25T02:30:19;101875.86;;;10.80;63.85
60817;BME280;51921;51.518;-3.188;2022-09-25T02:32:45;101878.16;;;11.80;60.41
60817;BME280;51921;51.518;-3.188;2022-09-25T02:35:10;101878.71;;;11.59;59.22
60817;BME280;51921;51.518;-3.188;2022-09-25T02:37:36;101880.73;;;12.27;57.70
60817;BME280;51921;51.518;-3.188;2022-09-25T02:40:04;101880.57;;;12.10;57.90
60817;BME280;51921;51.518;-3.188;2022-09-25T02:42:34;101879.51;;;12.93;55.60
60817;BME280;51921;51.518;-3.188;2022-09-25T02:45:05;101881.48;;;12.16;56.10
60817;BME280;51921;51.518;-3.188;2022-09-25T02:47:25;101883.08;;;12.33;55.62
60817;BME280;51921;51.518;-3.188;2022-09-25T02:49:49;101880.95;;;12.27;55.47
60817;BME280;51921;51.518;-3.188;2022-09-25T02:52:11;101877.49;;;11.78;57.22
60817;BME280;51921;51.518;-3.188;2022-09-25T02:54:40;101875.86;;;11.24;58.86
60817;BME280;51921;51.518;-3.188;2022-09-25T02:57:05;101877.41;;;11.68;57.24
60817;BME280;51921;51.518;-3.188;2022-09-25T02:59:30;101880.41;;;10.15;61.95
60817;BME280;51921;51.518;-3.188;2022-09-25T03:01:51;101884.31;;;10.20;63.73
60817;BME280;51921;51.518;-3.188;2022-09-25T03:04:17;101880.26;;;11.88;57.94
60817;BME280;51921;51.518;-3.188;2022-09-25T03:06:43;101879.89;;;11.92;57.23
60817;BME280;51921;51.518;-3.188;2022-09-25T03:09:08;101885.33;;;12.39;54.76
60817;BME280;51921;51.518;-3.188;2022-09-25T03:11:35;101883.30;;;11.83;55.57
60817;BME280;51921;51.518;-3.188;2022-09-25T03:14:00;101880.17;;;11.50;57.19
60817;BME280;51921;51.518;-3.188;2022-09-25T03:16:30;101878.79;;;12.13;55.39
60817;BME280;51921;51.518;-3.188;2022-09-25T03:18:49;101872.70;;;11.80;55.20
60817;BME280;51921;51.518;-3.188;2022-09-25T03:21:15;101872.09;;;12.11;55.11
60817;BME280;51921;51.518;-3.188;2022-09-25T03:23:40;101875.27;;;11.81;55.41
60817;BME280;51921;51.518;-3.188;2022-09-25T03:26:06;101873.82;;;11.73;55.64
60817;BME280;51921;51.518;-3.188;2022-09-25T03:28:31;101875.36;;;12.11;55.16
60817;BME280;51921;51.518;-3.188;2022-09-25T03:30:59;101879.39;;;12.34;53.67
60817;BME280;51921;51.518;-3.188;2022-09-25T03:33:22;101874.87;;;11.79;55.22
60817;BME280;51921;51.518;-3.188;2022-09-25T03:35:48;101877.16;;;11.54;56.33
60817;BME280;51921;51.518;-3.188;2022-09-25T03:38:13;101879.36;;;12.06;54.63
60817;BME280;51921;51.518;-3.188;2022-09-25T03:40:39;101874.80;;;10.24;57.95
60817;BME280;51921;51.518;-3.188;2022-09-25T03:43:04;101871.78;;;10.47;57.51
60817;BME280;51921;51.518;-3.188;2022-09-25T03:45:30;101868.28;;;10.43;58.25
60817;BME280;51921;51.518;-3.188;2022-09-25T03:47:55;101863.32;;;11.68;56.96
60817;BME280;51921;51.518;-3.188;2022-09-25T03:50:21;101862.28;;;11.50;56.53
60817;BME280;51921;51.518;-3.188;2022-09-25T03:52:46;101857.84;;;11.12;57.11
60817;BME280;51921;51.518;-3.188;2022-09-25T03:55:12;101854.86;;;10.93;57.00
60817;BME280;51921;51.518;-3.188;2022-09-25T03:57:37;101857.74;;;10.83;58.04
60817;BME280;51921;51.518;-3.188;2022-09-25T04:00:03;101853.81;;;10.61;58.21
60817;BME280;51921;51.518;-3.188;2022-09-25T04:02:28;101857.28;;;11.14;56.70
60817;BME280;51921;51.518;-3.188;2022-09-25T04:04:54;101856.01;;;11.55;55.96
60817;BME280;51921;51.518;-3.188;2022-09-25T04:07:20;101855.07;;;11.66;54.71
60817;BME280;51921;51.518;-3.188;2022-09-25T04:09:45;101859.49;;;12.09;54.40
60817;BME280;51921;51.518;-3.188;2022-09-25T04:12:10;101861.68;;;11.53;54.65
60817;BME280;51921;51.518;-3.188;2022-09-25T04:14:36;101863.32;;;10.88;57.02
60817;BME280;51921;51.518;-3.188;2022-09-25T04:17:01;101861.85;;;10.62;57.45
60817;BME280;51921;51.518;-3.188;2022-09-25T04:19:27;101866.23;;;11.81;54.30
60817;BME280;51921;51.518;-3.188;2022-09-25T04:21:53;101864.21;;;12.08;53.37
60817;BME280;51921;51.518;-3.188;2022-09-25T04:24:18;101862.77;;;10.40;56.49
60817;BME280;51921;51.518;-3.188;2022-09-25T04:26:44;101869.50;;;11.03;56.75
60817;BME280;51921;51.518;-3.188;2022-09-25T04:29:09;101868.86;;;12.18;53.54
60817;BME280;51921;51.518;-3.188;2022-09-25T04:31:35;101866.75;;;11.83;54.26
60817;BME280;51921;51.518;-3.188;2022-09-25T04:34:00;101865.18;;;11.11;54.81
60817;BME280;51921;51.518;-3.188;2022-09-25T04:36:26;101869.83;;;11.43;54.09
60817;BME280;51921;51.518;-3.188;2022-09-25T04:38:51;101873.07;;;10.90;54.98
60817;BME280;51921;51.518;-3.188;2022-09-25T04:41:17;101875.45;;;11.78;52.94
60817;BME280;51921;51.518;-3.188;2022-09-25T04:43:42;101876.62;;;11.76;52.83
60817;BME280;51921;51.518;-3.188;2022-09-25T04:46:10;101874.51;;;11.64;53.21
60817;BME280;51921;51.518;-3.188;2022-09-25T04:48:34;101874.35;;;11.37;53.47
60817;BME280;51921;51.518;-3.188;2022-09-25T04:50:59;101871.38;;;10.49;55.37
60817;BME280;51921;51.518;-3.188;2022-09-25T04:53:25;101865.15;;;11.31;54.94
60817;BME280;51921;51.518;-3.188;2022-09-25T04:55:50;101861.84;;;11.29;53.96
60817;BME280;51921;51.518;-3.188;2022-09-25T04:58:16;101863.08;;;11.93;52.99
60817;BME280;51921;51.518;-3.188;2022-09-25T05:00:41;101862.40;;;10.87;54.03
60817;BME280;51921;51.518;-3.188;2022-09-25T05:03:07;101865.91;;;11.57;52.96
60817;BME280;51921;51.518;-3.188;2022-09-25T05:05:32;101866.98;;;11.05;54.13
60817;BME280;51921;51.518;-3.188;2022-09-25T05:08:00;101874.01;;;6.46;67.57
60817;BME280;51921;51.518;-3.188;2022-09-25T05:10:25;101874.15;;;6.07;73.52
60817;BME280;51921;51.518;-3.188;2022-09-25T05:12:54;101868.69;;;9.83;62.91
60817;BME280;51921;51.518;-3.188;2022-09-25T05:15:15;101870.26;;;9.66;60.52
60817;BME280;51921;51.518;-3.188;2022-09-25T05:17:40;101873.14;;;10.91;55.99
60817;BME280;51921;51.518;-3.188;2022-09-25T05:20:06;101870.27;;;9.76;59.22
60817;BME280;51921;51.518;-3.188;2022-09-25T05:22:31;101870.89;;;9.98;58.53
60817;BME280;51921;51.518;-3.188;2022-09-25T05:24:57;101873.13;;;10.64;56.89
60817;BME280;51921;51.518;-3.188;2022-09-25T05:27:22;101878.42;;;10.77;56.38
60817;BME280;51921;51.518;-3.188;2022-09-25T05:29:48;101874.95;;;10.66;56.74
60817;BME280;51921;51.518;-3.188;2022-09-25T05:32:13;101871.79;;;11.06;54.83
60817;BME280;51921;51.518;-3.188;2022-09-25T05:34:39;101868.34;;;11.61;53.81
60817;BME280;51921;51.518;-3.188;2022-09-25T05:37:04;101868.89;;;11.48;54.52
60817;BME280;51921;51.518;-3.188;2022-09-25T05:39:30;101865.72;;;10.56;55.37
60817;BME280;51921;51.518;-3.188;2022-09-25T05:41:56;101868.76;;;10.35;55.46
60817;BME280;51921;51.518;-3.188;2022-09-25T05:44:21;101869.65;;;10.24;56.75
60817;BME280;51921;51.518;-3.188;2022-09-25T05:46:46;101867.30;;;11.14;53.82
60817;BME280;51921;51.518;-3.188;2022-09-25T05:49:12;101872.88;;;10.36;55.53
60817;BME280;51921;51.518;-3.188;2022-09-25T05:51:37;101867.61;;;10.18;55.01
60817;BME280;51921;51.518;-3.188;2022-09-25T05:54:03;101864.72;;;10.59;55.10
60817;BME280;51921;51.518;-3.188;2022-09-25T05:56:29;101862.40;;;10.98;54.27
60817;BME280;51921;51.518;-3.188;2022-09-25T05:58:54;101855.59;;;10.48;55.56
60817;BME280;51921;51.518;-3.188;2022-09-25T06:01:20;101854.04;;;11.43;53.81
60817;BME280;51921;51.518;-3.188;2022-09-25T06:03:45;101852.77;;;11.46;53.76
60817;BME280;51921;51.518;-3.188;2022-09-25T06:06:11;101854.39;;;10.86;54.28
60817;BME280;51921;51.518;-3.188;2022-09-25T06:08:37;101855.72;;;10.06;56.43
60817;BME280;51921;51.518;-3.188;2022-09-25T06:11:04;101852.40;;;9.70;57.33
60817;BME280;51921;51.518;-3.188;2022-09-25T06:13:28;101852.53;;;10.81;54.71
60817;BME280;51921;51.518;-3.188;2022-09-25T06:15:53;101855.31;;;10.75;54.88
60817;BME280;51921;51.518;-3.188;2022-09-25T06:18:20;101862.70;;;10.48;55.28
60817;BME280;51921;51.518;-3.188;2022-09-25T06:20:44;101868.89;;;6.71;66.72
60817;BME280;51921;51.518;-3.188;2022-09-25T06:23:10;101866.97;;;6.33;73.40
60817;BME280;51921;51.518;-3.188;2022-09-25T06:25:35;101863.68;;;9.37;61.41
60817;BME280;51921;51.518;-3.188;2022-09-25T06:28:01;101862.20;;;9.61;60.63
60817;BME280;51921;51.518;-3.188;2022-09-25T06:30:28;101861.76;;;7.42;65.78
60817;BME280;51921;51.518;-3.188;2022-09-25T06:32:56;101855.08;;;9.57;61.17
60817;BME280;51921;51.518;-3.188;2022-09-25T06:35:17;101858.83;;;9.80;59.16
60817;BME280;51921;51.518;-3.188;2022-09-25T06:37:43;101858.58;;;10.17;59.03
60817;BME280;51921;51.518;-3.188;2022-09-25T06:40:09;101855.81;;;10.17;57.67
60817;BME280;51921;51.518;-3.188;2022-09-25T06:42:34;101852.38;;;10.45;57.23
60817;BME280;51921;51.518;-3.188;2022-09-25T06:45:00;101855.71;;;10.31;56.84
60817;BME280;51921;51.518;-3.188;2022-09-25T06:47:25;101864.89;;;9.63;59.60
60817;BME280;51921;51.518;-3.188;2022-09-25T06:49:51;101864.80;;;9.18;59.98
60817;BME280;51921;51.518;-3.188;2022-09-25T06:52:17;101857.25;;;9.78;59.05
60817;BME280;51921;51.518;-3.188;2022-09-25T06:54:42;101854.65;;;9.70;59.46
60817;BME280;51921;51.518;-3.188;2022-09-25T06:57:07;101850.09;;;10.01;58.86
60817;BME280;51921;51.518;-3.188;2022-09-25T06:59:33;101852.75;;;10.34;58.35
60817;BME280;51921;51.518;-3.188;2022-09-25T07:01:58;101853.52;;;10.35;58.49
60817;BME280;51921;51.518;-3.188;2022-09-25T07:04:24;101853.87;;;9.59;60.22
60817;BME280;51921;51.518;-3.188;2022-09-25T07:06:50;101859.26;;;9.92;59.65
60817;BME280;51921;51.518;-3.188;2022-09-25T07:09:15;101859.66;;;9.84;58.80
60817;BME280;51921;51.518;-3.188;2022-09-25T07:11:41;101861.07;;;10.40;58.74
60817;BME280;51921;51.518;-3.188;2022-09-25T07:14:08;101865.61;;;11.55;55.53
60817;BME280;51921;51.518;-3.188;2022-09-25T07:16:32;101868.88;;;11.48;55.78
60817;BME280;51921;51.518;-3.188;2022-09-25T07:18:57;101870.74;;;10.32;58.43
60817;BME280;51921;51.518;-3.188;2022-09-25T07:21:23;101872.49;;;9.21;61.10
60817;BME280;51921;51.518;-3.188;2022-09-25T07:23:50;101872.25;;;9.21;62.62
60817;BME280;51921;51.518;-3.188;2022-09-25T07:26:17;101874.94;;;9.44;61.73
60817;BME280;51921;51.518;-3.188;2022-09-25T07:28:41;101885.85;;;8.42;65.63
60817;BME280;51921;51.518;-3.188;2022-09-25T07:31:13;101889.06;;;8.95;64.57
60817;BME280;51921;51.518;-3.188;2022-09-25T07:33:31;101888.54;;;9.26;62.79
60817;BME280;51921;51.518;-3.188;2022-09-25T07:36:00;101890.65;;;9.25;63.75
60817;BME280;51921;51.518;-3.188;2022-09-25T07:38:22;101890.28;;;9.34;63.07
60817;BME280;51921;51.518;-3.188;2022-09-25T07:40:47;101892.05;;;9.36;63.19
60817;BME280;51921;51.518;-3.188;2022-09-25T07:43:13;101894.70;;;9.05;65.46
60817;BME280;51921;51.518;-3.188;2022-09-25T07:45:39;101888.00;;;8.90;64.10
60817;BME280;51921;51.518;-3.188;2022-09-25T07:48:04;101887.20;;;10.09;60.46
60817;BME280;51921;51.518;-3.188;2022-09-25T07:50:31;101887.39;;;9.75;62.17
60817;BME280;51921;51.518;-3.188;2022-09-25T07:52:55;101884.65;;;10.10;61.33
60817;BME280;51921;51.518;-3.188;2022-09-25T07:55:21;101884.51;;;10.56;59.82
60817;BME280;51921;51.518;-3.188;2022-09-25T07:57:46;101881.70;;;11.72;56.81
60817;BME280;51921;51.518;-3.188;2022-09-25T08:00:12;101884.32;;;10.62;60.10
60817;BME280;51921;51.518;-3.188;2022-09-25T08:02:37;101887.75;;;10.64;59.43
60817;BME280;51921;51.518;-3.188;2022-09-25T08:05:03;101888.45;;;10.60;60.04
60817;BME280;51921;51.518;-3.188;2022-09-25T08:07:28;101883.91;;;9.62;62.93
60817;BME280;51921;51.518;-3.188;2022-09-25T08:09:54;101885.55;;;10.39;60.24
60817;BME280;51921;51.518;-3.188;2022-09-25T08:12:20;101885.21;;;10.37;59.88
60817;BME280;51921;51.518;-3.188;2022-09-25T08:14:45;101880.28;;;11.11;56.33
60817;BME280;51921;51.518;-3.188;2022-09-25T08:17:10;101882.18;;;11.29;56.42
60817;BME280;51921;51.518;-3.188;2022-09-25T08:19:36;101884.61;;;10.23;57.77
60817;BME280;51921;51.518;-3.188;2022-09-25T08:22:01;101885.05;;;11.26;56.76
60817;BME280;51921;51.518;-3.188;2022-09-25T08:24:27;101887.71;;;10.55;56.80
60817;BME280;51921;51.518;-3.188;2022-09-25T08:26:53;101883.58;;;11.01;57.27
60817;BME280;51921;51.518;-3.188;2022-09-25T08:29:18;101886.61;;;11.50;56.02
60817;BME280;51921;51.518;-3.188;2022-09-25T08:31:43;101883.51;;;11.10;56.22
60817;BME280;51921;51.518;-3.188;2022-09-25T08:34:09;101885.29;;;12.87;52.97
60817;BME280;51921;51.518;-3.188;2022-09-25T08:36:35;101880.51;;;14.27;50.19
60817;BME280;51921;51.518;-3.188;2022-09-25T08:39:00;101885.88;;;12.87;51.70
60817;BME280;51921;51.518;-3.188;2022-09-25T08:41:28;101876.71;;;13.77;49.84
60817;BME280;51921;51.518;-3.188;2022-09-25T08:43:57;101872.56;;;13.65;50.35
60817;BME280;51921;51.518;-3.188;2022-09-25T08:46:19;101869.91;;;13.31;50.60
60817;BME280;51921;51.518;-3.188;2022-09-25T08:48:54;101866.12;;;14.02;49.24
60817;BME280;51921;51.518;-3.188;2022-09-25T08:51:08;101865.81;;;13.71;50.66
60817;BME280;51921;51.518;-3.188;2022-09-25T08:53:34;101865.54;;;13.69;50.95
60817;BME280;51921;51.518;-3.188;2022-09-25T08:55:59;101867.39;;;12.21;54.26
60817;BME280;51921;51.518;-3.188;2022-09-25T08:58:26;101866.38;;;12.91;52.63
60817;BME280;51921;51.518;-3.188;2022-09-25T09:00:51;101865.86;;;11.94;55.28
60817;BME280;51921;51.518;-3.188;2022-09-25T09:03:15;101867.28;;;12.87;55.83
60817;BME280;51921;51.518;-3.188;2022-09-25T09:05:43;101865.87;;;12.45;58.81
60817;BME280;51921;51.518;-3.188;2022-09-25T09:08:08;101868.45;;;12.51;55.98
60817;BME280;51921;51.518;-3.188;2022-09-25T09:10:34;101860.58;;;13.34;54.11
60817;BME280;51921;51.518;-3.188;2022-09-25T09:13:00;101857.20;;;13.16;56.20
60817;BME280;51921;51.518;-3.188;2022-09-25T09:15:30;101852.50;;;13.45;54.88
60817;BME280;51921;51.518;-3.188;2022-09-25T09:17:48;101848.87;;;12.65;55.93
60817;BME280;51921;51.518;-3.188;2022-09-25T09:20:16;101849.05;;;14.10;52.56
60817;BME280;51921;51.518;-3.188;2022-09-25T09:22:45;101848.83;;;13.66;54.02
60817;BME280;51921;51.518;-3.188;2022-09-25T09:25:08;101844.01;;;14.80;49.57
60817;BME280;51921;51.518;-3.188;2022-09-25T09:27:56;101843.41;;;12.85;53.14
60817;BME280;51921;51.518;-3.188;2022-09-25T09:32:31;101833.87;;;13.87;50.70
60817;BME280;51921;51.518;-3.188;2022-09-25T09:34:57;101829.13;;;14.27;50.71
60817;BME280;51921;51.518;-3.188;2022-09-25T09:37:20;101824.89;;;14.09;49.52
60817;BME280;51921;51.518;-3.188;2022-09-25T09:39:42;101819.27;;;14.63;47.73
60817;BME280;51921;51.518;-3.188;2022-09-25T09:42:08;101815.43;;;14.62;48.32
60817;BME280;51921;51.518;-3.188;2022-09-25T09:44:40;101812.54;;;14.46;49.26
60817;BME280;51921;51.518;-3.188;2022-09-25T09:46:59;101811.36;;;13.75;49.79
60817;BME280;51921;51.518;-3.188;2022-09-25T09:49:24;101809.25;;;14.73;47.80
60817;BME280;51921;51.518;-3.188;2022-09-25T09:51:53;101812.82;;;14.91;47.83
60817;BME280;51921;51.518;-3.188;2022-09-25T09:54:14;101822.01;;;15.18;46.89
60817;BME280;51921;51.518;-3.188;2022-09-25T09:56:35;101822.99;;;14.42;46.99
60817;BME280;51921;51.518;-3.188;2022-09-25T09:59:03;101813.65;;;14.73;46.39
60817;BME280;51921;51.518;-3.188;2022-09-25T10:01:30;101810.55;;;15.82;44.02
60817;BME280;51921;51.518;-3.188;2022-09-25T10:04:00;101806.78;;;15.19;44.89
60817;BME280;51921;51.518;-3.188;2022-09-25T10:06:17;101805.46;;;15.12;47.31
60817;BME280;51921;51.518;-3.188;2022-09-25T10:08:42;101801.34;;;14.82;45.22
60817;BME280;51921;51.518;-3.188;2022-09-25T10:11:12;101798.30;;;15.65;43.63
60817;BME280;51921;51.518;-3.188;2022-09-25T10:13:36;101798.30;;;15.40;43.84
60817;BME280;51921;51.518;-3.188;2022-09-25T10:16:01;101798.82;;;15.56;43.04
60817;BME280;51921;51.518;-3.188;2022-09-25T10:18:27;101793.28;;;15.74;44.35
60817;BME280;51921;51.518;-3.188;2022-09-25T10:20:53;101793.91;;;15.40;45.29
60817;BME280;51921;51.518;-3.188;2022-09-25T10:23:26;101791.33;;;14.79;46.24
60817;BME280;51921;51.518;-3.188;2022-09-25T10:25:40;101784.95;;;15.70;44.18
60817;BME280;51921;51.518;-3.188;2022-09-25T10:30:30;101777.19;;;16.04;44.46
60817;BME280;51921;51.518;-3.188;2022-09-25T10:32:59;101772.51;;;15.62;43.82
60817;BME280;51921;51.518;-3.188;2022-09-25T10:35:24;101772.00;;;16.50;41.77
60817;BME280;51921;51.518;-3.188;2022-09-25T10:37:49;101764.72;;;16.94;40.39
60817;BME280;51921;51.518;-3.188;2022-09-25T10:40:22;101761.60;;;16.52;41.39
60817;BME280;51921;51.518;-3.188;2022-09-25T10:42:39;101757.20;;;15.93;43.04
60817;BME280;51921;51.518;-3.188;2022-09-25T10:47:30;101749.02;;;16.91;39.32
60817;BME280;51921;51.518;-3.188;2022-09-25T10:49:54;101746.35;;;16.59;40.72
60817;BME280;51921;51.518;-3.188;2022-09-25T10:52:19;101751.10;;;16.80;41.72
60817;BME280;51921;51.518;-3.188;2022-09-25T10:54:45;101741.24;;;16.50;41.36
60817;BME280;51921;51.518;-3.188;2022-09-25T10:57:15;101733.80;;;16.39;41.74
60817;BME280;51921;51.518;-3.188;2022-09-25T10:59:36;101732.53;;;15.66;41.62
60817;BME280;51921;51.518;-3.188;2022-09-25T11:02:01;101732.65;;;16.45;41.49
60817;BME280;51921;51.518;-3.188;2022-09-25T11:04:29;101725.74;;;17.74;39.58
60817;BME280;51921;51.518;-3.188;2022-09-25T11:06:54;101722.30;;;17.12;39.28
60817;BME280;51921;51.518;-3.188;2022-09-25T11:09:19;101720.16;;;16.51;41.15
60817;BME280;51921;51.518;-3.188;2022-09-25T11:11:43;101716.66;;;17.31;39.99
60817;BME280;51921;51.518;-3.188;2022-09-25T11:14:16;101713.30;;;17.01;40.26
60817;BME280;51921;51.518;-3.188;2022-09-25T11:16:45;101710.50;;;16.12;41.04
60817;BME280;51921;51.518;-3.188;2022-09-25T11:19:06;101710.98;;;17.10;39.83
60817;BME280;51921;51.518;-3.188;2022-09-25T11:21:29;101713.83;;;16.19;40.57
60817;BME280;51921;51.518;-3.188;2022-09-25T11:23:58;101707.88;;;16.10;41.10
60817;BME280;51921;51.518;-3.188;2022-09-25T11:26:18;101705.96;;;15.33;41.30
60817;BME280;51921;51.518;-3.188;2022-09-25T11:28:45;101700.10;;;16.92;40.60
60817;BME280;51921;51.518;-3.188;2022-09-25T11:31:12;101697.13;;;16.73;40.63
60817;BME280;51921;51.518;-3.188;2022-09-25T11:33:38;101699.80;;;17.10;40.89
60817;BME280;51921;51.518;-3.188;2022-09-25T11:35:59;101698.94;;;15.70;42.40
60817;BME280;51921;51.518;-3.188;2022-09-25T11:38:29;101695.11;;;16.17;42.25
60817;BME280;51921;51.518;-3.188;2022-09-25T11:40:53;101685.71;;;16.24;41.94
60817;BME280;51921;51.518;-3.188;2022-09-25T11:43:15;101683.19;;;16.92;41.97
60817;BME280;51921;51.518;-3.188;2022-09-25T11:45:42;101679.68;;;17.03;40.29
60817;BME280;51921;51.518;-3.188;2022-09-25T11:48:08;101683.09;;;15.98;43.44
60817;BME280;51921;51.518;-3.188;2022-09-25T11:50:34;101677.32;;;16.07;41.90
60817;BME280;51921;51.518;-3.188;2022-09-25T11:53:00;101675.89;;;15.60;43.87
60817;BME280;51921;51.518;-3.188;2022-09-25T11:57:53;101670.74;;;15.20;45.42
60817;BME280;51921;51.518;-3.188;2022-09-25T12:00:16;101663.36;;;14.86;45.91
60817;BME280;51921;51.518;-3.188;2022-09-25T12:02:48;101659.28;;;14.71;46.73
60817;BME280;51921;51.518;-3.188;2022-09-25T12:05:17;101661.72;;;15.70;44.83
60817;BME280;51921;51.518;-3.188;2022-09-25T12:07:40;101658.03;;;15.42;45.24
60817;BME280;51921;51.518;-3.188;2022-09-25T12:10:09;101651.28;;;15.59;45.60
60817;BME280;51921;51.518;-3.188;2022-09-25T12:12:23;101649.03;;;14.34;47.73
60817;BME280;51921;51.518;-3.188;2022-09-25T12:14:49;101652.25;;;15.04;48.32
60817;BME280;51921;51.518;-3.188;2022-09-25T12:17:12;101649.15;;;14.47;49.01
60817;BME280;51921;51.518;-3.188;2022-09-25T12:19:40;101650.50;;;14.02;49.98
60817;BME280;51921;51.518;-3.188;2022-09-25T12:22:06;101652.45;;;14.65;49.00
60817;BME280;51921;51.518;-3.188;2022-09-25T12:24:33;101645.03;;;14.22;49.39
60817;BME280;51921;51.518;-3.188;2022-09-25T12:26:55;101637.06;;;14.61;48.64
60817;BME280;51921;51.518;-3.188;2022-09-25T12:29:24;101636.44;;;15.55;47.39
60817;BME280;51921;51.518;-3.188;2022-09-25T12:31:48;101633.73;;;14.55;48.81
60817;BME280;51921;51.518;-3.188;2022-09-25T12:34:12;101635.53;;;15.57;46.29
60817;BME280;51921;51.518;-3.188;2022-09-25T12:36:35;101632.98;;;15.21;47.47
60817;BME280;51921;51.518;-3.188;2022-09-25T12:39:01;101619.96;;;14.93;47.96
60817;BME280;51921;51.518;-3.188;2022-09-25T12:41:27;101622.75;;;15.10;48.28
60817;BME280;51921;51.518;-3.188;2022-09-25T12:43:51;101612.96;;;15.08;48.31
60817;BME280;51921;51.518;-3.188;2022-09-25T12:46:20;101612.14;;;15.17;48.90